createdAt,value
2018-03-07T00:00:38.236Z,3.70
2018-03-07T00:03:11.837Z,3.80
2018-03-07T00:05:45.427Z,3.70
2018-03-07T00:08:19.095Z,3.70
2018-03-07T00:10:52.873Z,3.70
2018-03-07T00:13:27.256Z,3.40
2018-03-07T00:16:00.937Z,3.40
2018-03-07T00:18:34.464Z,3.50
2018-03-07T00:21:08.014Z,3.40
2018-03-07T00:23:41.736Z,3.50
2018-03-07T00:26:15.466Z,3.50
2018-03-07T00:28:49.888Z,3.50
2018-03-07T00:31:23.635Z,3.50
2018-03-07T00:33:57.190Z,3.50
2018-03-07T00:36:30.907Z,3.40
2018-03-07T00:39:04.443Z,3.20
2018-03-07T00:41:38.021Z,3.00
2018-03-07T00:44:11.571Z,3.00
2018-03-07T00:46:45.157Z,3.00
2018-03-07T00:49:18.727Z,2.70
2018-03-07T00:51:52.257Z,2.90
2018-03-07T00:54:25.771Z,2.90
2018-03-07T00:57:02.937Z,2.80
2018-03-07T00:59:36.469Z,2.80
2018-03-07T01:02:10.051Z,2.80
2018-03-07T01:04:43.599Z,2.90
2018-03-07T01:07:17.143Z,2.90
2018-03-07T01:09:50.678Z,2.90
2018-03-07T01:12:24.255Z,2.80
2018-03-07T01:14:57.959Z,2.80
2018-03-07T01:17:31.523Z,2.70
2018-03-07T01:20:05.072Z,2.70
2018-03-07T01:22:38.644Z,2.80
2018-03-07T01:25:12.263Z,2.80
2018-03-07T01:27:46.607Z,2.70
2018-03-07T01:30:20.899Z,2.80
2018-03-07T01:32:54.631Z,2.80
2018-03-07T01:35:28.918Z,2.80
2018-03-07T01:38:02.617Z,2.80
2018-03-07T01:40:36.306Z,2.90
2018-03-07T01:43:09.836Z,2.90
2018-03-07T01:45:43.442Z,2.90
2018-03-07T01:48:16.997Z,2.90
2018-03-07T01:50:50.515Z,2.90
2018-03-07T01:53:24.254Z,2.90
2018-03-07T01:55:57.821Z,3.00
2018-03-07T01:58:31.346Z,3.10
2018-03-07T02:01:05.004Z,3.10
2018-03-07T02:18:27.837Z,3.10
2018-03-07T02:21:01.390Z,3.20
2018-03-07T02:23:34.990Z,3.20
2018-03-07T02:26:08.777Z,3.20
2018-03-07T02:28:42.383Z,3.20
2018-03-07T02:31:15.967Z,3.20
2018-03-07T02:33:49.500Z,3.20
2018-03-07T02:36:31.176Z,3.30
2018-03-07T02:39:05.639Z,3.30
2018-03-07T02:41:40.211Z,3.40
2018-03-07T02:44:13.936Z,3.30
2018-03-07T02:46:47.441Z,3.40
2018-03-07T02:49:24.995Z,3.30
2018-03-07T02:51:58.613Z,3.20
2018-03-07T02:54:32.323Z,3.20
2018-03-07T02:57:05.832Z,3.20
2018-03-07T02:59:39.425Z,3.10
2018-03-07T03:02:12.925Z,3.20
2018-03-07T03:04:47.237Z,3.20
2018-03-07T03:07:21.653Z,3.30
2018-03-07T03:09:55.955Z,3.20
2018-03-07T03:12:30.297Z,3.20
2018-03-07T03:15:03.947Z,3.20
2018-03-07T03:17:37.533Z,3.30
2018-03-07T03:20:11.186Z,3.20
2018-03-07T03:22:45.546Z,3.30
2018-03-07T03:25:19.904Z,3.30
2018-03-07T03:27:54.248Z,3.20
2018-03-07T03:30:27.745Z,3.20
2018-03-07T03:33:01.412Z,3.30
2018-03-07T03:35:35.114Z,3.30
2018-03-07T03:38:08.700Z,3.20
2018-03-07T03:40:42.242Z,3.20
2018-03-07T03:43:15.958Z,3.20
2018-03-07T03:45:49.514Z,3.10
2018-03-07T03:48:23.162Z,3.10
2018-03-07T03:50:56.846Z,3.10
2018-03-07T03:53:30.347Z,3.00
2018-03-07T03:56:03.940Z,3.10
2018-03-07T03:58:37.637Z,3.00
2018-03-07T04:01:11.157Z,3.10
2018-03-07T04:03:44.749Z,3.20
2018-03-07T04:06:21.333Z,3.20
2018-03-07T04:08:54.914Z,3.10
2018-03-07T04:11:28.509Z,3.10
2018-03-07T04:14:02.109Z,3.10
2018-03-07T04:16:35.772Z,3.00
2018-03-07T04:19:09.323Z,3.10
2018-03-07T04:21:43.632Z,3.00
2018-03-07T04:24:17.354Z,2.90
2018-03-07T04:26:50.885Z,3.00
2018-03-07T04:29:24.547Z,3.00
2018-03-07T04:31:58.086Z,2.70
2018-03-07T04:34:31.646Z,2.90
2018-03-07T04:37:05.344Z,3.00
2018-03-07T04:39:38.982Z,2.40
2018-03-07T04:42:12.461Z,2.50
2018-03-07T04:44:46.098Z,2.70
2018-03-07T04:47:19.828Z,2.90
2018-03-07T04:49:53.547Z,3.00
2018-03-07T04:52:27.120Z,3.10
2018-03-07T04:55:00.724Z,3.20
2018-03-07T04:57:34.282Z,3.30
2018-03-07T05:00:08.682Z,3.30
2018-03-07T05:02:42.366Z,3.40
2018-03-07T05:05:15.966Z,3.40
2018-03-07T05:07:49.572Z,3.40
2018-03-07T05:10:23.209Z,3.40
2018-03-07T05:12:57.512Z,3.10
2018-03-07T05:15:31.090Z,3.10
2018-03-07T05:18:04.647Z,2.60
2018-03-07T05:20:38.238Z,2.80
2018-03-07T05:23:11.803Z,3.00
2018-03-07T05:25:45.390Z,3.10
2018-03-07T05:28:19.092Z,3.30
2018-03-07T05:30:53.422Z,3.40
2018-03-07T05:33:27.829Z,3.20
2018-03-07T05:36:01.401Z,3.20
2018-03-07T05:38:37.960Z,3.20
2018-03-07T05:41:11.481Z,3.30
2018-03-07T05:43:45.938Z,3.20
2018-03-07T05:46:19.534Z,3.10
2018-03-07T05:48:53.113Z,3.10
2018-03-07T05:51:26.822Z,3.10
2018-03-07T05:54:06.200Z,3.00
2018-03-07T05:56:40.573Z,3.10
2018-03-07T05:59:14.210Z,3.10
2018-03-07T06:01:47.816Z,3.00
2018-03-07T06:04:21.370Z,3.10
2018-03-07T06:06:55.781Z,3.10
2018-03-07T06:09:29.268Z,3.10
2018-03-07T06:12:02.785Z,3.10
2018-03-07T06:14:36.330Z,3.20
2018-03-07T06:17:10.007Z,3.20
2018-03-07T06:19:43.718Z,3.30
2018-03-07T06:22:18.837Z,3.30
2018-03-07T06:24:53.378Z,3.30
2018-03-07T06:27:26.943Z,3.30
2018-03-07T06:30:00.518Z,3.30
2018-03-07T06:32:34.053Z,3.30
2018-03-07T06:35:07.689Z,3.20
2018-03-07T06:37:41.182Z,3.30
2018-03-07T06:40:14.746Z,3.30
2018-03-07T06:42:48.265Z,3.20
2018-03-07T06:45:21.862Z,3.10
2018-03-07T06:47:55.586Z,2.80
2018-03-07T06:50:29.182Z,2.90
2018-03-07T06:53:02.759Z,3.10
2018-03-07T06:55:36.402Z,3.20
2018-03-07T06:58:10.831Z,3.30
2018-03-07T07:00:48.410Z,3.50
2018-03-07T07:03:21.973Z,3.50
2018-03-07T07:05:55.590Z,3.40
2018-03-07T07:08:29.111Z,3.60
2018-03-07T07:11:02.652Z,3.70
2018-03-07T07:13:36.288Z,3.70
2018-03-07T07:16:10.605Z,3.80
2018-03-07T07:18:44.126Z,3.80
2018-03-07T07:21:18.409Z,4.00
2018-03-07T07:23:52.004Z,3.90
2018-03-07T07:26:25.528Z,4.10
2018-03-07T07:28:59.119Z,4.20
2018-03-07T07:31:32.661Z,4.30
2018-03-07T07:34:06.304Z,4.40
2018-03-07T07:36:42.994Z,4.40
2018-03-07T07:39:16.509Z,4.40
2018-03-07T07:41:50.045Z,4.40
2018-03-07T07:44:23.605Z,4.50
2018-03-07T07:46:57.896Z,4.70
2018-03-07T07:49:32.547Z,4.60
2018-03-07T07:52:06.347Z,4.80
2018-03-07T07:54:39.873Z,4.80
2018-03-07T07:57:13.434Z,5.00
2018-03-07T07:59:47.010Z,5.20
2018-03-07T08:02:20.551Z,5.00
2018-03-07T08:04:54.123Z,4.70
2018-03-07T08:07:27.700Z,4.70
2018-03-07T08:10:01.958Z,4.60
2018-03-07T08:12:35.482Z,4.70
2018-03-07T08:15:09.045Z,4.90
2018-03-07T08:17:42.603Z,5.00
2018-03-07T08:20:16.264Z,5.10
2018-03-07T08:22:49.971Z,5.40
2018-03-07T08:25:23.513Z,5.50
2018-03-07T08:27:57.051Z,5.60
2018-03-07T08:30:30.648Z,5.90
2018-03-07T08:33:04.925Z,5.90
2018-03-07T08:35:38.458Z,5.90
2018-03-07T08:38:12.372Z,5.90
2018-03-07T08:40:46.154Z,6.00
2018-03-07T08:43:19.864Z,6.10
2018-03-07T08:45:53.422Z,6.10
2018-03-07T08:48:26.994Z,6.20
2018-03-07T08:51:00.725Z,6.20
2018-03-07T08:53:34.276Z,6.20
2018-03-07T08:56:07.865Z,6.20
2018-03-07T08:58:41.576Z,6.20
2018-03-07T09:01:15.207Z,6.30
2018-03-07T09:03:49.696Z,6.40
2018-03-07T09:06:23.440Z,6.30
2018-03-07T09:08:56.992Z,6.40
2018-03-07T09:11:31.347Z,6.40
2018-03-07T09:14:04.821Z,6.40
2018-03-07T09:16:38.505Z,6.50
2018-03-07T09:19:12.850Z,6.30
2018-03-07T09:21:47.198Z,6.50
2018-03-07T09:24:20.862Z,6.50
2018-03-07T09:26:54.372Z,6.40
2018-03-07T09:29:27.917Z,6.40
2018-03-07T09:32:01.535Z,6.50
2018-03-07T09:34:35.060Z,6.50
2018-03-07T09:37:08.606Z,6.50
2018-03-07T09:39:42.886Z,6.00
2018-03-07T09:42:16.422Z,6.00
2018-03-07T09:44:49.941Z,6.10
2018-03-07T09:47:23.499Z,6.20
2018-03-07T09:49:57.067Z,6.10
2018-03-07T09:52:30.593Z,6.10
2018-03-07T09:55:04.170Z,6.10
2018-03-07T09:57:37.778Z,6.20
2018-03-07T10:00:11.273Z,6.20
2018-03-07T10:02:44.881Z,6.30
2018-03-07T10:05:18.474Z,6.50
2018-03-07T10:07:52.087Z,6.70
2018-03-07T10:10:25.598Z,6.50
2018-03-07T10:12:59.182Z,6.60
2018-03-07T10:15:32.748Z,6.70
2018-03-07T10:18:07.204Z,6.80
2018-03-07T10:20:41.013Z,6.80
2018-03-07T10:23:14.718Z,6.90
2018-03-07T10:25:48.303Z,6.70
2018-03-07T10:28:21.845Z,6.70
2018-03-07T10:30:55.416Z,6.70
2018-03-07T10:33:29.113Z,6.90
2018-03-07T10:36:02.654Z,6.80
2018-03-07T10:38:36.209Z,6.60
2018-03-07T10:41:09.733Z,6.60
2018-03-07T10:43:43.419Z,6.60
2018-03-07T10:46:17.047Z,6.70
2018-03-07T10:48:50.802Z,6.70
2018-03-07T10:51:25.127Z,6.70
2018-03-07T10:53:58.746Z,6.60
2018-03-07T10:56:32.257Z,6.70
2018-03-07T10:59:05.829Z,6.80
2018-03-07T11:01:39.359Z,7.00
2018-03-07T11:04:12.979Z,7.00
2018-03-07T11:06:46.671Z,6.90
2018-03-07T11:09:20.222Z,6.80
2018-03-07T11:11:53.897Z,6.70
2018-03-07T11:14:27.600Z,6.70
2018-03-07T11:17:01.166Z,6.90
2018-03-07T11:19:34.826Z,7.00
2018-03-07T11:22:09.169Z,7.00
2018-03-07T11:24:42.753Z,6.90
2018-03-07T11:27:16.433Z,7.00
2018-03-07T11:29:50.105Z,7.10
2018-03-07T11:32:23.844Z,7.20
2018-03-07T11:34:57.506Z,7.10
2018-03-07T11:37:31.207Z,7.00
2018-03-07T11:40:04.771Z,6.90
2018-03-07T11:42:38.469Z,7.10
2018-03-07T11:45:12.097Z,7.10
2018-03-07T11:47:46.041Z,7.00
2018-03-07T11:50:19.717Z,7.20
2018-03-07T11:52:53.222Z,7.50
2018-03-07T11:55:26.774Z,7.50
2018-03-07T11:58:00.478Z,7.70
2018-03-07T12:00:34.830Z,7.70
2018-03-07T12:03:09.231Z,7.50
2018-03-07T12:05:42.865Z,7.50
2018-03-07T12:08:16.499Z,7.40
2018-03-07T12:10:50.174Z,7.60
2018-03-07T12:13:23.765Z,7.90
2018-03-07T12:15:57.361Z,8.10
2018-03-07T12:18:30.944Z,8.30
2018-03-07T12:21:04.545Z,8.10
2018-03-07T12:23:38.097Z,8.10
2018-03-07T12:26:11.660Z,8.10
2018-03-07T12:28:45.212Z,8.30
2018-03-07T12:31:18.800Z,8.30
2018-03-07T12:33:52.354Z,8.30
2018-03-07T12:36:25.927Z,8.10
2018-03-07T12:38:59.484Z,8.00
2018-03-07T12:41:33.038Z,7.80
2018-03-07T12:44:06.612Z,7.90
2018-03-07T12:46:40.265Z,7.90
2018-03-07T12:49:14.564Z,7.90
2018-03-07T12:51:48.996Z,8.10
2018-03-07T12:54:22.505Z,8.00
2018-03-07T12:56:56.043Z,8.00
2018-03-07T12:59:29.629Z,8.10
2018-03-07T13:02:03.167Z,8.30
2018-03-07T13:04:36.766Z,8.20
2018-03-07T13:07:10.344Z,8.00
2018-03-07T13:09:45.240Z,7.90
2018-03-07T13:12:18.957Z,7.90
2018-03-07T13:14:52.513Z,8.00
2018-03-07T13:17:26.848Z,8.10
2018-03-07T13:20:00.392Z,8.10
2018-03-07T13:22:34.130Z,8.20
2018-03-07T13:25:07.717Z,8.20
2018-03-07T13:27:41.333Z,8.10
2018-03-07T13:30:14.916Z,7.90
2018-03-07T13:32:49.259Z,7.80
2018-03-07T13:35:22.854Z,7.80
2018-03-07T13:37:56.487Z,8.00
2018-03-07T13:40:30.179Z,8.10
2018-03-07T13:43:03.673Z,8.00
2018-03-07T13:45:37.213Z,8.00
2018-03-07T13:48:10.902Z,8.00
2018-03-07T13:50:45.592Z,8.10
2018-03-07T13:53:19.143Z,7.80
2018-03-07T13:55:53.659Z,7.90
2018-03-07T13:58:27.401Z,7.90
2018-03-07T14:01:00.972Z,7.60
2018-03-07T14:03:35.475Z,7.60
2018-03-07T14:06:09.039Z,7.60
2018-03-07T14:08:42.622Z,7.70
2018-03-07T14:11:16.941Z,7.40
2018-03-07T14:13:50.601Z,7.40
2018-03-07T14:16:24.967Z,7.30
2018-03-07T14:18:58.608Z,7.30
2018-03-07T14:21:32.201Z,7.20
2018-03-07T14:24:05.702Z,7.10
2018-03-07T14:26:39.257Z,7.20
2018-03-07T14:29:12.834Z,7.20
2018-03-07T14:31:46.353Z,7.10
2018-03-07T14:34:19.965Z,7.10
2018-03-07T14:36:53.697Z,7.10
2018-03-07T14:39:27.279Z,7.00
2018-03-07T14:42:01.597Z,7.00
2018-03-07T14:44:35.161Z,7.00
2018-03-07T14:47:08.818Z,6.90
2018-03-07T14:49:42.521Z,7.00
2018-03-07T14:52:16.149Z,7.00
2018-03-07T14:54:50.597Z,7.10
2018-03-07T14:57:24.176Z,7.10
2018-03-07T14:59:58.526Z,6.90
2018-03-07T15:02:32.113Z,6.90
2018-03-07T15:05:05.637Z,6.90
2018-03-07T15:07:39.932Z,6.80
2018-03-07T15:10:14.367Z,6.80
2018-03-07T15:12:47.960Z,6.70
2018-03-07T15:15:21.558Z,6.70
2018-03-07T15:17:55.930Z,6.70
2018-03-07T15:20:29.523Z,6.70
2018-03-07T15:23:03.803Z,6.60
2018-03-07T15:25:38.199Z,6.60
2018-03-07T15:28:12.463Z,6.60
2018-03-07T15:30:46.180Z,6.60
2018-03-07T15:33:20.460Z,6.60
2018-03-07T15:35:53.962Z,6.60
2018-03-07T15:38:28.268Z,6.60
2018-03-07T15:41:01.802Z,6.60
2018-03-07T15:43:35.370Z,6.60
2018-03-07T15:46:08.901Z,6.50
2018-03-07T15:48:43.302Z,6.50
2018-03-07T15:51:17.013Z,6.50
2018-03-07T15:53:50.702Z,6.50
2018-03-07T15:56:24.270Z,6.50
2018-03-07T15:58:57.813Z,6.50
2018-03-07T16:01:31.347Z,6.50
2018-03-07T16:04:04.894Z,6.50
2018-03-07T16:06:38.621Z,6.40
2018-03-07T16:09:12.194Z,6.40
2018-03-07T16:11:45.936Z,6.20
2018-03-07T16:14:19.510Z,6.20
2018-03-07T16:16:53.009Z,6.10
2018-03-07T16:19:26.580Z,6.10
2018-03-07T16:22:00.288Z,6.10
2018-03-07T16:24:33.807Z,6.00
2018-03-07T16:27:07.395Z,6.10
2018-03-07T16:29:40.925Z,6.00
2018-03-07T16:32:14.526Z,6.00
2018-03-07T16:34:48.208Z,5.90
2018-03-07T16:37:21.801Z,6.00
2018-03-07T16:39:56.179Z,5.90
2018-03-07T16:42:29.862Z,5.90
2018-03-07T16:45:03.514Z,5.90
2018-03-07T16:47:37.150Z,5.90
2018-03-07T16:50:10.720Z,5.80
2018-03-07T16:52:44.284Z,5.80
2018-03-07T16:55:17.859Z,5.70
2018-03-07T16:57:51.399Z,5.80
2018-03-07T17:00:25.036Z,5.70
2018-03-07T17:02:59.294Z,5.70
2018-03-07T17:05:33.569Z,5.70
2018-03-07T17:08:07.193Z,5.70
2018-03-07T17:10:40.876Z,5.70
2018-03-07T17:13:14.426Z,5.60
2018-03-07T17:15:47.962Z,5.70
2018-03-07T17:18:21.477Z,5.70
2018-03-07T17:20:55.266Z,5.70
2018-03-07T17:23:28.758Z,5.60
2018-03-07T17:26:02.392Z,5.70
2018-03-07T17:28:36.707Z,5.70
2018-03-07T17:31:10.395Z,5.70
2018-03-07T17:33:44.117Z,5.50
2018-03-07T17:36:17.675Z,5.40
2018-03-07T17:38:52.002Z,5.70
2018-03-07T17:41:25.637Z,5.60
2018-03-07T17:43:59.434Z,5.80
2018-03-07T17:46:33.749Z,5.50
2018-03-07T17:49:07.357Z,5.40
2018-03-07T17:51:41.752Z,5.20
2018-03-07T17:54:15.429Z,5.10
2018-03-07T17:56:49.108Z,5.30
2018-03-07T17:59:22.764Z,5.20
2018-03-07T18:01:56.350Z,5.10
2018-03-07T18:04:30.037Z,5.10
2018-03-07T18:07:03.600Z,4.90
2018-03-07T18:09:37.256Z,4.80
2018-03-07T18:12:11.792Z,5.10
2018-03-07T18:14:45.522Z,5.10
2018-03-07T18:17:19.119Z,4.90
2018-03-07T18:19:52.654Z,5.10
2018-03-07T18:22:26.305Z,5.20
2018-03-07T18:24:59.827Z,5.10
2018-03-07T18:27:33.526Z,5.00
2018-03-07T18:30:07.082Z,4.80
2018-03-07T18:32:40.634Z,4.80
2018-03-07T18:35:14.186Z,4.90
2018-03-07T18:37:47.928Z,4.90
2018-03-07T18:40:21.474Z,4.90
2018-03-07T18:42:55.913Z,4.90
2018-03-07T18:45:29.518Z,4.90
2018-03-07T18:48:03.217Z,4.90
2018-03-07T18:50:36.838Z,4.90
2018-03-07T18:53:10.413Z,4.90
2018-03-07T18:55:43.951Z,4.90
2018-03-07T18:58:18.438Z,5.00
2018-03-07T19:00:52.769Z,5.00
2018-03-07T19:03:26.275Z,5.00
2018-03-07T19:05:59.943Z,5.00
2018-03-07T19:08:34.274Z,4.90
2018-03-07T19:11:07.883Z,4.90
2018-03-07T19:13:41.594Z,4.90
2018-03-07T19:16:15.081Z,4.90
2018-03-07T19:18:48.676Z,4.90
2018-03-07T19:21:22.263Z,4.90
2018-03-07T19:23:55.944Z,4.80
2018-03-07T19:26:29.654Z,4.80
2018-03-07T19:29:04.176Z,4.70
2018-03-07T19:31:38.050Z,4.70
2018-03-07T19:34:11.655Z,4.70
2018-03-07T19:36:45.448Z,4.70
2018-03-07T19:39:20.151Z,4.80
2018-03-07T19:41:54.030Z,4.90
2018-03-07T19:44:27.838Z,5.10
2018-03-07T19:47:02.393Z,5.30
2018-03-07T19:49:36.799Z,5.30
2018-03-07T19:52:10.424Z,5.30
2018-03-07T19:54:44.170Z,5.30
2018-03-07T19:57:17.829Z,5.20
2018-03-07T19:59:51.423Z,4.90
2018-03-07T20:02:25.144Z,5.00
2018-03-07T20:04:58.711Z,5.10
2018-03-07T20:07:32.251Z,5.00
2018-03-07T20:10:06.605Z,4.90
2018-03-07T20:12:41.163Z,4.80
2018-03-07T20:15:15.674Z,4.90
2018-03-07T20:17:49.269Z,4.90
2018-03-07T20:20:23.538Z,4.50
2018-03-07T20:22:57.087Z,4.50
2018-03-07T20:25:30.592Z,4.50
2018-03-07T20:28:04.135Z,4.60
2018-03-07T20:30:37.712Z,4.60
2018-03-07T20:33:11.420Z,4.60
2018-03-07T20:35:44.992Z,4.60
2018-03-07T20:38:18.507Z,4.60
2018-03-07T20:40:52.017Z,4.50
2018-03-07T20:43:25.586Z,4.40
2018-03-07T20:45:59.178Z,4.30
2018-03-07T20:48:32.766Z,4.30
2018-03-07T20:51:06.279Z,4.30
2018-03-07T20:53:39.867Z,4.30
2018-03-07T20:56:13.386Z,4.30
2018-03-07T21:01:44.544Z,4.20
2018-03-07T21:04:18.134Z,4.30
2018-03-07T21:06:51.623Z,4.20
2018-03-07T21:09:25.189Z,4.10
2018-03-07T21:11:59.540Z,4.10
2018-03-07T21:14:33.131Z,4.10
2018-03-07T21:17:06.793Z,4.10
2018-03-07T21:19:40.352Z,4.10
2018-03-07T21:22:13.962Z,4.00
2018-03-07T21:24:47.546Z,4.00
2018-03-07T21:27:21.181Z,4.00
2018-03-07T21:29:54.767Z,3.90
2018-03-07T21:32:28.552Z,3.80
2018-03-07T21:35:02.257Z,3.80
2018-03-07T21:37:36.696Z,3.70
2018-03-07T21:40:10.292Z,3.70
2018-03-07T21:42:44.179Z,3.80
2018-03-07T21:45:17.784Z,3.80
2018-03-07T21:47:53.331Z,3.80
2018-03-07T21:50:27.004Z,3.90
2018-03-07T21:53:00.740Z,3.80
2018-03-07T21:55:34.349Z,3.80
2018-03-07T21:58:07.912Z,3.80
2018-03-07T22:00:41.576Z,3.90
2018-03-07T22:03:15.217Z,3.90
2018-03-07T22:05:48.763Z,3.90
2018-03-07T22:08:22.345Z,4.00
2018-03-07T22:10:55.868Z,4.10
2018-03-07T22:13:29.510Z,4.10
2018-03-07T22:16:03.175Z,4.00
2018-03-07T22:18:36.734Z,4.10
2018-03-07T22:21:10.299Z,4.10
2018-03-07T22:23:43.833Z,4.10
2018-03-07T22:26:17.359Z,4.10
2018-03-07T22:28:50.974Z,4.10
2018-03-07T22:31:24.552Z,4.00
2018-03-07T22:33:58.164Z,4.10
2018-03-07T22:36:31.869Z,4.00
2018-03-07T22:39:05.401Z,4.10
2018-03-07T22:41:38.944Z,4.00
2018-03-07T22:44:12.500Z,3.90
2018-03-07T22:46:46.200Z,3.80
2018-03-07T22:49:19.938Z,3.90
2018-03-07T22:51:53.564Z,3.80
2018-03-07T22:54:27.125Z,3.70
2018-03-07T22:57:00.783Z,3.70
2018-03-07T22:59:34.561Z,3.60
2018-03-07T23:02:08.963Z,3.60
2018-03-07T23:04:43.462Z,3.60
2018-03-07T23:07:17.046Z,3.60
2018-03-07T23:09:50.754Z,3.50
2018-03-07T23:12:24.429Z,3.50
2018-03-07T23:14:58.443Z,3.50
2018-03-07T23:17:32.100Z,3.40
2018-03-07T23:20:05.921Z,3.50
2018-03-07T23:22:39.692Z,3.50
2018-03-07T23:25:13.498Z,3.50
2018-03-07T23:27:47.350Z,3.50
2018-03-07T23:30:21.176Z,3.40
2018-03-07T23:32:54.835Z,3.40
2018-03-07T23:35:28.640Z,3.30
2018-03-07T23:38:03.180Z,3.40
2018-03-07T23:40:36.734Z,3.30
2018-03-07T23:43:10.276Z,3.40
2018-03-07T23:45:43.896Z,3.40
2018-03-07T23:48:17.489Z,3.40
2018-03-07T23:50:51.064Z,3.40
2018-03-07T23:53:25.508Z,3.40
2018-03-07T23:55:59.266Z,3.50
2018-03-07T23:58:32.893Z,3.50
